sensor_id;sensor_type;location;lat;lon;timestamp;temperature;humidity
16287;DHT22;8251;53.568;10.018;2023-06-22T00:00:53;23.60;65.60
16287;DHT22;8251;53.568;10.018;2023-06-22T00:03:22;23.50;65.70
16287;DHT22;8251;53.568;10.018;2023-06-22T00:05:51;23.50;66.00
16287;DHT22;8251;53.568;10.018;2023-06-22T00:08:19;23.50;66.20
16287;DHT22;8251;53.568;10.018;2023-06-22T00:10:46;23.40;66.20
16287;DHT22;8251;53.568;10.018;2023-06-22T00:13:16;23.50;66.40
16287;DHT22;8251;53.568;10.018;2023-06-22T00:19:05;23.40;66.60
16287;DHT22;8251;53.568;10.018;2023-06-22T00:21:37;23.40;66.90
16287;DHT22;8251;53.568;10.018;2023-06-22T00:24:09;23.40;66.80
16287;DHT22;8251;53.568;10.018;2023-06-22T00:26:42;23.40;66.90
16287;DHT22;8251;53.568;10.018;2023-06-22T00:29:09;23.30;67.40
16287;DHT22;8251;53.568;10.018;2023-06-22T00:31:36;23.30;67.70
16287;DHT22;8251;53.568;10.018;2023-06-22T00:34:06;23.30;68.00
16287;DHT22;8251;53.568;10.018;2023-06-22T00:36:34;23.30;68.10
16287;DHT22;8251;53.568;10.018;2023-06-22T00:39:02;23.30;68.20
16287;DHT22;8251;53.568;10.018;2023-06-22T00:41:31;23.30;68.40
16287;DHT22;8251;53.568;10.018;2023-06-22T00:43:58;23.30;68.60
16287;DHT22;8251;53.568;10.018;2023-06-22T00:46:26;23.30;68.60
16287;DHT22;8251;53.568;10.018;2023-06-22T00:48:53;23.30;68.60
16287;DHT22;8251;53.568;10.018;2023-06-22T00:51:25;23.30;68.60
16287;DHT22;8251;53.568;10.018;2023-06-22T00:53:52;23.30;68.80
16287;DHT22;8251;53.568;10.018;2023-06-22T00:56:20;23.30;69.00
16287;DHT22;8251;53.568;10.018;2023-06-22T00:58:51;23.30;69.20
16287;DHT22;8251;53.568;10.018;2023-06-22T01:01:19;23.30;69.30
16287;DHT22;8251;53.568;10.018;2023-06-22T01:03:52;23.30;69.30
16287;DHT22;8251;53.568;10.018;2023-06-22T01:06:26;23.30;69.60
16287;DHT22;8251;53.568;10.018;2023-06-22T01:09:02;23.20;69.70
16287;DHT22;8251;53.568;10.018;2023-06-22T01:11:37;23.20;70.00
16287;DHT22;8251;53.568;10.018;2023-06-22T01:14:14;23.20;70.10
16287;DHT22;8251;53.568;10.018;2023-06-22T01:17:12;23.20;70.10
16287;DHT22;8251;53.568;10.018;2023-06-22T01:19:45;23.20;70.30
16287;DHT22;8251;53.568;10.018;2023-06-22T01:22:19;23.20;70.30
16287;DHT22;8251;53.568;10.018;2023-06-22T01:24:57;23.20;70.50
16287;DHT22;8251;53.568;10.018;2023-06-22T01:27:39;23.20;70.60
16287;DHT22;8251;53.568;10.018;2023-06-22T01:30:13;23.20;70.50
16287;DHT22;8251;53.568;10.018;2023-06-22T01:32:45;23.10;70.60
16287;DHT22;8251;53.568;10.018;2023-06-22T01:35:15;23.20;71.00
16287;DHT22;8251;53.568;10.018;2023-06-22T01:37:44;23.10;71.10
16287;DHT22;8251;53.568;10.018;2023-06-22T01:40:15;23.10;71.10
16287;DHT22;8251;53.568;10.018;2023-06-22T01:42:43;23.10;71.30
16287;DHT22;8251;53.568;10.018;2023-06-22T01:45:14;23.10;71.30
16287;DHT22;8251;53.568;10.018;2023-06-22T01:47:42;23.10;71.30
16287;DHT22;8251;53.568;10.018;2023-06-22T01:50:10;23.00;71.30
16287;DHT22;8251;53.568;10.018;2023-06-22T01:52:37;23.00;71.50
16287;DHT22;8251;53.568;10.018;2023-06-22T01:55:10;23.00;71.50
16287;DHT22;8251;53.568;10.018;2023-06-22T01:57:37;23.00;71.50
16287;DHT22;8251;53.568;10.018;2023-06-22T02:00:06;23.00;71.60
16287;DHT22;8251;53.568;10.018;2023-06-22T02:02:42;23.00;71.60
16287;DHT22;8251;53.568;10.018;2023-06-22T02:05:12;23.00;71.70
16287;DHT22;8251;53.568;10.018;2023-06-22T02:07:55;23.00;71.90
16287;DHT22;8251;53.568;10.018;2023-06-22T02:10:24;22.90;72.10
16287;DHT22;8251;53.568;10.018;2023-06-22T02:12:56;22.90;72.30
16287;DHT22;8251;53.568;10.018;2023-06-22T02:15:27;22.90;72.30
16287;DHT22;8251;53.568;10.018;2023-06-22T02:17:55;22.90;72.50
16287;DHT22;8251;53.568;10.018;2023-06-22T02:20:25;22.80;72.50
16287;DHT22;8251;53.568;10.018;2023-06-22T02:22:56;22.80;72.70
16287;DHT22;8251;53.568;10.018;2023-06-22T02:25:26;22.90;72.90
16287;DHT22;8251;53.568;10.018;2023-06-22T02:27:56;22.80;72.80
16287;DHT22;8251;53.568;10.018;2023-06-22T02:30:23;22.80;72.90
16287;DHT22;8251;53.568;10.018;2023-06-22T02:32:54;22.80;73.30
16287;DHT22;8251;53.568;10.018;2023-06-22T02:35:26;22.70;73.30
16287;DHT22;8251;53.568;10.018;2023-06-22T02:38:03;22.70;73.40
16287;DHT22;8251;53.568;10.018;2023-06-22T02:40:34;22.70;73.30
16287;DHT22;8251;53.568;10.018;2023-06-22T02:43:01;22.70;73.40
16287;DHT22;8251;53.568;10.018;2023-06-22T02:45:28;22.70;73.40
16287;DHT22;8251;53.568;10.018;2023-06-22T02:47:56;22.70;73.60
16287;DHT22;8251;53.568;10.018;2023-06-22T02:50:24;22.70;73.40
16287;DHT22;8251;53.568;10.018;2023-06-22T02:52:52;22.60;73.60
16287;DHT22;8251;53.568;10.018;2023-06-22T02:55:25;22.60;73.80
16287;DHT22;8251;53.568;10.018;2023-06-22T02:57:52;22.60;73.80
16287;DHT22;8251;53.568;10.018;2023-06-22T03:00:20;22.60;73.80
16287;DHT22;8251;53.568;10.018;2023-06-22T03:02:48;22.60;74.00
16287;DHT22;8251;53.568;10.018;2023-06-22T03:05:19;22.60;74.10
16287;DHT22;8251;53.568;10.018;2023-06-22T03:07:52;22.50;74.20
16287;DHT22;8251;53.568;10.018;2023-06-22T03:10:19;22.50;74.30
16287;DHT22;8251;53.568;10.018;2023-06-22T03:12:46;22.50;74.50
16287;DHT22;8251;53.568;10.018;2023-06-22T03:15:14;22.50;74.60
16287;DHT22;8251;53.568;10.018;2023-06-22T03:17:42;22.50;74.60
16287;DHT22;8251;53.568;10.018;2023-06-22T03:20:12;22.50;74.80
16287;DHT22;8251;53.568;10.018;2023-06-22T03:22:42;22.40;74.90
16287;DHT22;8251;53.568;10.018;2023-06-22T03:25:09;22.40;74.90
16287;DHT22;8251;53.568;10.018;2023-06-22T03:27:38;22.40;74.90
16287;DHT22;8251;53.568;10.018;2023-06-22T03:30:08;22.40;75.10
16287;DHT22;8251;53.568;10.018;2023-06-22T03:32:35;22.40;75.10
16287;DHT22;8251;53.568;10.018;2023-06-22T03:35:02;22.40;75.30
16287;DHT22;8251;53.568;10.018;2023-06-22T03:37:32;22.40;75.50
16287;DHT22;8251;53.568;10.018;2023-06-22T03:40:01;22.40;75.60
16287;DHT22;8251;53.568;10.018;2023-06-22T03:42:36;22.40;75.70
16287;DHT22;8251;53.568;10.018;2023-06-22T03:45:09;22.40;75.60
16287;DHT22;8251;53.568;10.018;2023-06-22T03:47:37;22.40;75.50
16287;DHT22;8251;53.568;10.018;2023-06-22T03:50:07;22.40;75.50
16287;DHT22;8251;53.568;10.018;2023-06-22T03:52:34;22.40;75.50
16287;DHT22;8251;53.568;10.018;2023-06-22T03:55:04;22.40;75.30
16287;DHT22;8251;53.568;10.018;2023-06-22T03:57:34;22.50;75.40
16287;DHT22;8251;53.568;10.018;2023-06-22T04:00:02;22.50;75.00
16287;DHT22;8251;53.568;10.018;2023-06-22T04:02:34;22.50;74.80
16287;DHT22;8251;53.568;10.018;2023-06-22T04:05:01;22.50;74.60
16287;DHT22;8251;53.568;10.018;2023-06-22T04:07:28;22.50;74.70
16287;DHT22;8251;53.568;10.018;2023-06-22T04:09:55;22.60;74.70
16287;DHT22;8251;53.568;10.018;2023-06-22T04:12:24;22.60;74.20
16287;DHT22;8251;53.568;10.018;2023-06-22T04:14:51;22.60;73.80
16287;DHT22;8251;53.568;10.018;2023-06-22T04:17:18;22.60;73.70
16287;DHT22;8251;53.568;10.018;2023-06-22T04:19:48;22.60;74.40
16287;DHT22;8251;53.568;10.018;2023-06-22T04:22:15;22.70;73.90
16287;DHT22;8251;53.568;10.018;2023-06-22T04:24:45;22.70;73.50
16287;DHT22;8251;53.568;10.018;2023-06-22T04:27:12;22.70;74.20
16287;DHT22;8251;53.568;10.018;2023-06-22T04:29:41;22.70;73.70
16287;DHT22;8251;53.568;10.018;2023-06-22T04:32:15;22.80;73.90
16287;DHT22;8251;53.568;10.018;2023-06-22T04:34:42;22.80;73.50
16287;DHT22;8251;53.568;10.018;2023-06-22T04:37:13;22.80;73.30
16287;DHT22;8251;53.568;10.018;2023-06-22T04:39:41;22.80;73.10
16287;DHT22;8251;53.568;10.018;2023-06-22T04:42:08;22.90;73.00
16287;DHT22;8251;53.568;10.018;2023-06-22T04:44:42;22.80;72.90
16287;DHT22;8251;53.568;10.018;2023-06-22T04:47:12;22.90;72.70
16287;DHT22;8251;53.568;10.018;2023-06-22T04:49:39;22.90;72.50
16287;DHT22;8251;53.568;10.018;2023-06-22T04:52:10;22.90;72.40
16287;DHT22;8251;53.568;10.018;2023-06-22T04:54:39;22.90;72.20
16287;DHT22;8251;53.568;10.018;2023-06-22T04:57:14;22.90;72.10
16287;DHT22;8251;53.568;10.018;2023-06-22T04:59:43;22.90;72.00
16287;DHT22;8251;53.568;10.018;2023-06-22T05:02:12;22.90;71.70
16287;DHT22;8251;53.568;10.018;2023-06-22T05:04:42;23.00;71.50
16287;DHT22;8251;53.568;10.018;2023-06-22T05:07:09;23.00;71.30
16287;DHT22;8251;53.568;10.018;2023-06-22T05:09:36;23.00;71.00
16287;DHT22;8251;53.568;10.018;2023-06-22T05:12:04;23.10;70.20
16287;DHT22;8251;53.568;10.018;2023-06-22T05:14:32;23.00;69.60
16287;DHT22;8251;53.568;10.018;2023-06-22T05:17:00;23.10;69.40
16287;DHT22;8251;53.568;10.018;2023-06-22T05:19:32;23.10;69.20
16287;DHT22;8251;53.568;10.018;2023-06-22T05:22:10;23.10;69.00
16287;DHT22;8251;53.568;10.018;2023-06-22T05:24:41;23.10;68.90
16287;DHT22;8251;53.568;10.018;2023-06-22T05:27:08;23.20;68.60
16287;DHT22;8251;53.568;10.018;2023-06-22T05:29:36;23.20;68.40
16287;DHT22;8251;53.568;10.018;2023-06-22T05:32:11;23.30;68.20
16287;DHT22;8251;53.568;10.018;2023-06-22T05:34:38;23.30;68.20
16287;DHT22;8251;53.568;10.018;2023-06-22T05:37:06;23.40;68.10
16287;DHT22;8251;53.568;10.018;2023-06-22T05:39:41;23.40;68.30
16287;DHT22;8251;53.568;10.018;2023-06-22T05:42:20;23.50;68.10
16287;DHT22;8251;53.568;10.018;2023-06-22T05:44:48;23.50;66.30
16287;DHT22;8251;53.568;10.018;2023-06-22T05:47:17;23.50;65.40
16287;DHT22;8251;53.568;10.018;2023-06-22T05:49:44;23.50;65.20
16287;DHT22;8251;53.568;10.018;2023-06-22T05:52:25;23.50;64.80
16287;DHT22;8251;53.568;10.018;2023-06-22T05:54:52;23.60;65.00
16287;DHT22;8251;53.568;10.018;2023-06-22T05:57:19;23.70;65.00
16287;DHT22;8251;53.568;10.018;2023-06-22T05:59:47;23.70;65.00
16287;DHT22;8251;53.568;10.018;2023-06-22T06:02:16;23.70;64.70
16287;DHT22;8251;53.568;10.018;2023-06-22T06:04:45;23.80;64.10
16287;DHT22;8251;53.568;10.018;2023-06-22T06:07:12;23.80;63.40
16287;DHT22;8251;53.568;10.018;2023-06-22T06:09:39;23.90;63.10
16287;DHT22;8251;53.568;10.018;2023-06-22T06:12:07;23.90;62.90
16287;DHT22;8251;53.568;10.018;2023-06-22T06:14:35;23.90;62.40
16287;DHT22;8251;53.568;10.018;2023-06-22T06:17:03;23.90;62.50
16287;DHT22;8251;53.568;10.018;2023-06-22T06:19:32;24.00;62.40
16287;DHT22;8251;53.568;10.018;2023-06-22T06:21:59;24.10;62.10
16287;DHT22;8251;53.568;10.018;2023-06-22T06:24:27;24.10;62.40
16287;DHT22;8251;53.568;10.018;2023-06-22T06:26:54;24.10;62.30
16287;DHT22;8251;53.568;10.018;2023-06-22T06:29:21;24.20;62.40
16287;DHT22;8251;53.568;10.018;2023-06-22T06:31:49;24.30;62.40
16287;DHT22;8251;53.568;10.018;2023-06-22T06:34:17;24.40;62.20
16287;DHT22;8251;53.568;10.018;2023-06-22T06:36:46;24.50;61.90
16287;DHT22;8251;53.568;10.018;2023-06-22T06:39:14;24.50;61.80
16287;DHT22;8251;53.568;10.018;2023-06-22T06:41:42;24.60;62.10
16287;DHT22;8251;53.568;10.018;2023-06-22T06:44:09;24.70;62.10
16287;DHT22;8251;53.568;10.018;2023-06-22T06:46:37;24.80;62.00
16287;DHT22;8251;53.568;10.018;2023-06-22T06:49:07;24.80;61.70
16287;DHT22;8251;53.568;10.018;2023-06-22T06:51:40;24.90;61.20
16287;DHT22;8251;53.568;10.018;2023-06-22T06:54:11;25.00;61.20
16287;DHT22;8251;53.568;10.018;2023-06-22T06:56:38;25.00;61.40
16287;DHT22;8251;53.568;10.018;2023-06-22T06:59:07;25.10;61.30
16287;DHT22;8251;53.568;10.018;2023-06-22T07:01:34;25.20;61.30
16287;DHT22;8251;53.568;10.018;2023-06-22T07:04:04;25.20;61.30
16287;DHT22;8251;53.568;10.018;2023-06-22T07:06:31;25.20;61.10
16287;DHT22;8251;53.568;10.018;2023-06-22T07:09:00;25.20;61.00
16287;DHT22;8251;53.568;10.018;2023-06-22T07:11:30;25.20;61.10
16287;DHT22;8251;53.568;10.018;2023-06-22T07:13:59;25.30;61.20
16287;DHT22;8251;53.568;10.018;2023-06-22T07:16:41;25.40;61.30
16287;DHT22;8251;53.568;10.018;2023-06-22T07:19:12;25.50;60.60
16287;DHT22;8251;53.568;10.018;2023-06-22T07:21:43;25.50;60.00
16287;DHT22;8251;53.568;10.018;2023-06-22T07:24:16;25.60;60.00
16287;DHT22;8251;53.568;10.018;2023-06-22T07:26:49;25.70;60.20
16287;DHT22;8251;53.568;10.018;2023-06-22T07:29:20;25.80;59.70
16287;DHT22;8251;53.568;10.018;2023-06-22T07:31:50;25.80;59.40
16287;DHT22;8251;53.568;10.018;2023-06-22T07:34:18;25.90;58.70
16287;DHT22;8251;53.568;10.018;2023-06-22T07:36:46;25.90;58.80
16287;DHT22;8251;53.568;10.018;2023-06-22T07:39:14;26.00;58.90
16287;DHT22;8251;53.568;10.018;2023-06-22T07:41:42;26.10;58.90
16287;DHT22;8251;53.568;10.018;2023-06-22T07:44:11;26.20;59.10
16287;DHT22;8251;53.568;10.018;2023-06-22T07:46:38;26.20;59.00
16287;DHT22;8251;53.568;10.018;2023-06-22T07:49:07;26.30;58.60
16287;DHT22;8251;53.568;10.018;2023-06-22T07:51:34;26.40;58.10
16287;DHT22;8251;53.568;10.018;2023-06-22T07:54:02;26.40;58.20
16287;DHT22;8251;53.568;10.018;2023-06-22T07:56:30;26.50;58.40
16287;DHT22;8251;53.568;10.018;2023-06-22T07:59:01;26.50;57.90
16287;DHT22;8251;53.568;10.018;2023-06-22T08:01:30;26.60;57.40
16287;DHT22;8251;53.568;10.018;2023-06-22T08:04:01;26.60;57.50
16287;DHT22;8251;53.568;10.018;2023-06-22T08:06:30;26.60;57.40
16287;DHT22;8251;53.568;10.018;2023-06-22T08:09:04;26.60;56.80
16287;DHT22;8251;53.568;10.018;2023-06-22T08:11:40;26.60;56.00
16287;DHT22;8251;53.568;10.018;2023-06-22T08:14:18;26.70;55.90
16287;DHT22;8251;53.568;10.018;2023-06-22T08:16:46;26.70;56.10
16287;DHT22;8251;53.568;10.018;2023-06-22T08:19:13;26.80;56.20
16287;DHT22;8251;53.568;10.018;2023-06-22T08:21:42;26.90;56.10
16287;DHT22;8251;53.568;10.018;2023-06-22T08:24:09;26.90;56.20
16287;DHT22;8251;53.568;10.018;2023-06-22T08:26:47;27.00;56.10
16287;DHT22;8251;53.568;10.018;2023-06-22T08:29:14;27.10;55.90
16287;DHT22;8251;53.568;10.018;2023-06-22T08:31:42;27.20;55.80
16287;DHT22;8251;53.568;10.018;2023-06-22T08:34:19;27.50;55.90
16287;DHT22;8251;53.568;10.018;2023-06-22T08:36:49;27.70;54.50
16287;DHT22;8251;53.568;10.018;2023-06-22T08:39:18;28.00;54.10
16287;DHT22;8251;53.568;10.018;2023-06-22T08:41:52;28.30;53.50
16287;DHT22;8251;53.568;10.018;2023-06-22T08:44:20;28.70;52.60
16287;DHT22;8251;53.568;10.018;2023-06-22T08:46:48;29.00;52.00
16287;DHT22;8251;53.568;10.018;2023-06-22T08:49:17;29.30;50.70
16287;DHT22;8251;53.568;10.018;2023-06-22T08:51:44;29.70;50.00
16287;DHT22;8251;53.568;10.018;2023-06-22T08:54:21;30.20;50.30
16287;DHT22;8251;53.568;10.018;2023-06-22T08:56:48;30.60;48.90
16287;DHT22;8251;53.568;10.018;2023-06-22T08:59:15;31.00;48.30
16287;DHT22;8251;53.568;10.018;2023-06-22T09:01:43;31.50;47.00
16287;DHT22;8251;53.568;10.018;2023-06-22T09:04:11;31.80;46.20
16287;DHT22;8251;53.568;10.018;2023-06-22T09:06:42;32.00;46.00
16287;DHT22;8251;53.568;10.018;2023-06-22T09:09:12;32.40;45.80
16287;DHT22;8251;53.568;10.018;2023-06-22T09:11:39;32.70;44.80
16287;DHT22;8251;53.568;10.018;2023-06-22T09:14:14;32.90;44.60
16287;DHT22;8251;53.568;10.018;2023-06-22T09:16:41;32.90;44.30
16287;DHT22;8251;53.568;10.018;2023-06-22T09:19:19;32.70;44.10
16287;DHT22;8251;53.568;10.018;2023-06-22T09:21:48;32.70;44.20
16287;DHT22;8251;53.568;10.018;2023-06-22T09:24:14;32.70;44.80
16287;DHT22;8251;53.568;10.018;2023-06-22T09:26:41;32.80;44.60
16287;DHT22;8251;53.568;10.018;2023-06-22T09:29:11;32.90;44.80
16287;DHT22;8251;53.568;10.018;2023-06-22T09:31:37;32.90;44.50
16287;DHT22;8251;53.568;10.018;2023-06-22T09:34:06;32.90;44.20
16287;DHT22;8251;53.568;10.018;2023-06-22T09:36:40;32.90;44.40
16287;DHT22;8251;53.568;10.018;2023-06-22T09:39:30;32.90;44.40
16287;DHT22;8251;53.568;10.018;2023-06-22T09:42:03;33.00;44.60
16287;DHT22;8251;53.568;10.018;2023-06-22T09:44:31;33.00;44.90
16287;DHT22;8251;53.568;10.018;2023-06-22T09:46:58;33.20;44.80
16287;DHT22;8251;53.568;10.018;2023-06-22T09:49:30;33.20;44.30
16287;DHT22;8251;53.568;10.018;2023-06-22T09:51:57;33.20;44.40
16287;DHT22;8251;53.568;10.018;2023-06-22T09:54:24;33.30;44.10
16287;DHT22;8251;53.568;10.018;2023-06-22T09:57:00;33.40;44.00
16287;DHT22;8251;53.568;10.018;2023-06-22T09:59:27;33.50;43.20
16287;DHT22;8251;53.568;10.018;2023-06-22T10:01:54;33.60;43.20
16287;DHT22;8251;53.568;10.018;2023-06-22T10:04:22;33.60;42.50
16287;DHT22;8251;53.568;10.018;2023-06-22T10:06:56;33.60;42.50
16287;DHT22;8251;53.568;10.018;2023-06-22T10:09:23;33.60;42.80
16287;DHT22;8251;53.568;10.018;2023-06-22T10:11:50;33.70;42.80
16287;DHT22;8251;53.568;10.018;2023-06-22T10:14:18;33.90;42.90
16287;DHT22;8251;53.568;10.018;2023-06-22T10:16:45;34.00;42.40
16287;DHT22;8251;53.568;10.018;2023-06-22T10:19:13;34.00;42.10
16287;DHT22;8251;53.568;10.018;2023-06-22T10:21:48;34.10;42.50
16287;DHT22;8251;53.568;10.018;2023-06-22T10:24:20;34.20;42.40
16287;DHT22;8251;53.568;10.018;2023-06-22T10:26:59;34.40;42.40
16287;DHT22;8251;53.568;10.018;2023-06-22T10:29:31;34.40;41.90
16287;DHT22;8251;53.568;10.018;2023-06-22T10:31:58;34.40;42.00
16287;DHT22;8251;53.568;10.018;2023-06-22T10:34:25;34.30;42.40
16287;DHT22;8251;53.568;10.018;2023-06-22T10:36:52;34.40;42.40
16287;DHT22;8251;53.568;10.018;2023-06-22T10:39:26;34.40;42.20
16287;DHT22;8251;53.568;10.018;2023-06-22T10:41:55;34.50;41.80
16287;DHT22;8251;53.568;10.018;2023-06-22T10:44:22;34.60;42.40
16287;DHT22;8251;53.568;10.018;2023-06-22T10:46:54;34.80;41.80
16287;DHT22;8251;53.568;10.018;2023-06-22T10:49:21;35.00;42.20
16287;DHT22;8251;53.568;10.018;2023-06-22T10:51:48;35.20;41.40
16287;DHT22;8251;53.568;10.018;2023-06-22T10:54:21;35.30;42.10
16287;DHT22;8251;53.568;10.018;2023-06-22T10:56:48;35.30;41.00
16287;DHT22;8251;53.568;10.018;2023-06-22T10:59:20;35.40;40.90
16287;DHT22;8251;53.568;10.018;2023-06-22T11:01:59;35.10;41.10
16287;DHT22;8251;53.568;10.018;2023-06-22T11:04:26;35.00;41.70
16287;DHT22;8251;53.568;10.018;2023-06-22T11:06:53;35.00;41.80
16287;DHT22;8251;53.568;10.018;2023-06-22T11:09:21;35.10;41.70
16287;DHT22;8251;53.568;10.018;2023-06-22T11:11:52;35.20;41.10
16287;DHT22;8251;53.568;10.018;2023-06-22T11:14:32;35.00;41.20
16287;DHT22;8251;53.568;10.018;2023-06-22T11:17:05;34.80;41.80
16287;DHT22;8251;53.568;10.018;2023-06-22T11:19:32;34.50;41.80
16287;DHT22;8251;53.568;10.018;2023-06-22T11:22:01;34.30;42.50
16287;DHT22;8251;53.568;10.018;2023-06-22T11:24:28;34.20;43.10
16287;DHT22;8251;53.568;10.018;2023-06-22T11:26:55;34.00;42.90
16287;DHT22;8251;53.568;10.018;2023-06-22T11:29:24;33.80;43.80
16287;DHT22;8251;53.568;10.018;2023-06-22T11:31:51;33.60;43.80
16287;DHT22;8251;53.568;10.018;2023-06-22T11:34:27;33.60;43.50
16287;DHT22;8251;53.568;10.018;2023-06-22T11:36:58;33.90;43.40
16287;DHT22;8251;53.568;10.018;2023-06-22T11:39:25;34.00;43.10
16287;DHT22;8251;53.568;10.018;2023-06-22T11:41:52;33.80;43.40
16287;DHT22;8251;53.568;10.018;2023-06-22T11:44:19;33.70;43.80
16287;DHT22;8251;53.568;10.018;2023-06-22T11:46:46;33.50;43.70
16287;DHT22;8251;53.568;10.018;2023-06-22T11:49:14;33.40;44.10
16287;DHT22;8251;53.568;10.018;2023-06-22T11:51:42;33.40;44.60
16287;DHT22;8251;53.568;10.018;2023-06-22T11:54:09;33.30;44.70
16287;DHT22;8251;53.568;10.018;2023-06-22T11:56:36;33.20;44.60
16287;DHT22;8251;53.568;10.018;2023-06-22T11:59:02;33.00;44.20
16287;DHT22;8251;53.568;10.018;2023-06-22T12:01:33;32.80;45.10
16287;DHT22;8251;53.568;10.018;2023-06-22T12:04:03;32.70;45.80
16287;DHT22;8251;53.568;10.018;2023-06-22T12:06:35;32.60;45.90
16287;DHT22;8251;53.568;10.018;2023-06-22T12:09:09;32.40;46.40
16287;DHT22;8251;53.568;10.018;2023-06-22T12:11:38;32.30;46.80
16287;DHT22;8251;53.568;10.018;2023-06-22T12:14:05;32.30;47.00
16287;DHT22;8251;53.568;10.018;2023-06-22T12:16:32;32.20;47.00
16287;DHT22;8251;53.568;10.018;2023-06-22T12:18:59;32.10;46.50
16287;DHT22;8251;53.568;10.018;2023-06-22T12:21:29;32.10;46.70
16287;DHT22;8251;53.568;10.018;2023-06-22T12:23:56;32.10;46.90
16287;DHT22;8251;53.568;10.018;2023-06-22T12:26:24;32.10;47.20
16287;DHT22;8251;53.568;10.018;2023-06-22T12:28:51;32.00;47.10
16287;DHT22;8251;53.568;10.018;2023-06-22T12:31:18;32.00;47.30
16287;DHT22;8251;53.568;10.018;2023-06-22T12:33:45;31.90;47.20
16287;DHT22;8251;53.568;10.018;2023-06-22T12:36:12;31.90;47.30
16287;DHT22;8251;53.568;10.018;2023-06-22T12:38:39;31.80;47.20
16287;DHT22;8251;53.568;10.018;2023-06-22T12:41:09;31.60;47.50
16287;DHT22;8251;53.568;10.018;2023-06-22T12:43:37;31.60;47.70
16287;DHT22;8251;53.568;10.018;2023-06-22T12:46:04;31.50;48.00
16287;DHT22;8251;53.568;10.018;2023-06-22T12:48:32;31.50;48.40
16287;DHT22;8251;53.568;10.018;2023-06-22T12:51:02;31.50;48.10
16287;DHT22;8251;53.568;10.018;2023-06-22T12:53:30;31.40;48.10
16287;DHT22;8251;53.568;10.018;2023-06-22T12:56:00;31.40;48.30
16287;DHT22;8251;53.568;10.018;2023-06-22T12:58:33;31.40;48.30
16287;DHT22;8251;53.568;10.018;2023-06-22T13:01:01;31.40;48.70
16287;DHT22;8251;53.568;10.018;2023-06-22T13:03:28;31.40;48.40
16287;DHT22;8251;53.568;10.018;2023-06-22T13:06:01;31.40;48.20
16287;DHT22;8251;53.568;10.018;2023-06-22T13:08:29;31.50;48.60
16287;DHT22;8251;53.568;10.018;2023-06-22T13:10:56;31.50;48.80
16287;DHT22;8251;53.568;10.018;2023-06-22T13:13:26;31.60;48.50
16287;DHT22;8251;53.568;10.018;2023-06-22T13:15:53;31.70;48.40
16287;DHT22;8251;53.568;10.018;2023-06-22T13:18:22;31.70;48.30
16287;DHT22;8251;53.568;10.018;2023-06-22T13:20:56;31.70;48.30
16287;DHT22;8251;53.568;10.018;2023-06-22T13:23:23;31.70;48.00
16287;DHT22;8251;53.568;10.018;2023-06-22T13:25:51;31.70;48.10
16287;DHT22;8251;53.568;10.018;2023-06-22T13:28:18;31.70;48.00
16287;DHT22;8251;53.568;10.018;2023-06-22T13:30:49;31.60;48.50
16287;DHT22;8251;53.568;10.018;2023-06-22T13:33:18;31.60;48.70
16287;DHT22;8251;53.568;10.018;2023-06-22T13:35:47;31.60;48.80
16287;DHT22;8251;53.568;10.018;2023-06-22T13:38:13;31.60;48.80
16287;DHT22;8251;53.568;10.018;2023-06-22T13:40:41;31.50;48.60
16287;DHT22;8251;53.568;10.018;2023-06-22T13:43:11;31.50;48.60
16287;DHT22;8251;53.568;10.018;2023-06-22T13:45:38;31.40;48.50
16287;DHT22;8251;53.568;10.018;2023-06-22T13:48:05;31.30;48.60
16287;DHT22;8251;53.568;10.018;2023-06-22T13:50:32;31.20;49.10
16287;DHT22;8251;53.568;10.018;2023-06-22T13:53:04;31.10;49.30
16287;DHT22;8251;53.568;10.018;2023-06-22T13:55:32;31.10;49.70
16287;DHT22;8251;53.568;10.018;2023-06-22T13:58:02;31.10;49.50
16287;DHT22;8251;53.568;10.018;2023-06-22T14:00:29;31.00;49.70
16287;DHT22;8251;53.568;10.018;2023-06-22T14:02:58;31.00;50.00
16287;DHT22;8251;53.568;10.018;2023-06-22T14:05:25;31.00;49.90
16287;DHT22;8251;53.568;10.018;2023-06-22T14:07:52;31.10;50.40
16287;DHT22;8251;53.568;10.018;2023-06-22T14:10:20;31.10;49.90
16287;DHT22;8251;53.568;10.018;2023-06-22T14:12:53;31.10;50.10
16287;DHT22;8251;53.568;10.018;2023-06-22T14:15:20;31.00;49.90
16287;DHT22;8251;53.568;10.018;2023-06-22T14:17:47;30.90;49.60
16287;DHT22;8251;53.568;10.018;2023-06-22T14:20:14;30.80;49.50
16287;DHT22;8251;53.568;10.018;2023-06-22T14:22:41;30.70;49.70
16287;DHT22;8251;53.568;10.018;2023-06-22T14:25:08;30.60;50.10
16287;DHT22;8251;53.568;10.018;2023-06-22T14:27:37;30.50;50.30
16287;DHT22;8251;53.568;10.018;2023-06-22T14:30:10;30.50;50.80
16287;DHT22;8251;53.568;10.018;2023-06-22T14:32:37;30.40;50.90
16287;DHT22;8251;53.568;10.018;2023-06-22T14:35:05;30.30;50.90
16287;DHT22;8251;53.568;10.018;2023-06-22T14:37:32;30.30;51.10
16287;DHT22;8251;53.568;10.018;2023-06-22T14:40:00;30.20;51.20
16287;DHT22;8251;53.568;10.018;2023-06-22T14:42:30;30.20;52.50
16287;DHT22;8251;53.568;10.018;2023-06-22T14:44:58;30.10;53.30
16287;DHT22;8251;53.568;10.018;2023-06-22T14:47:31;30.00;53.50
16287;DHT22;8251;53.568;10.018;2023-06-22T14:50:02;29.90;53.80
16287;DHT22;8251;53.568;10.018;2023-06-22T14:52:29;29.80;54.00
16287;DHT22;8251;53.568;10.018;2023-06-22T14:54:57;29.70;54.30
16287;DHT22;8251;53.568;10.018;2023-06-22T14:57:24;29.70;54.00
16287;DHT22;8251;53.568;10.018;2023-06-22T14:59:51;29.60;54.00
16287;DHT22;8251;53.568;10.018;2023-06-22T15:02:22;29.50;53.80
16287;DHT22;8251;53.568;10.018;2023-06-22T15:04:52;29.50;54.00
16287;DHT22;8251;53.568;10.018;2023-06-22T15:07:23;29.50;53.70
16287;DHT22;8251;53.568;10.018;2023-06-22T15:09:52;29.40;54.00
16287;DHT22;8251;53.568;10.018;2023-06-22T15:12:19;29.40;54.30
16287;DHT22;8251;53.568;10.018;2023-06-22T15:14:52;29.40;54.70
16287;DHT22;8251;53.568;10.018;2023-06-22T15:17:23;29.30;54.60
16287;DHT22;8251;53.568;10.018;2023-06-22T15:19:55;29.30;54.00
16287;DHT22;8251;53.568;10.018;2023-06-22T15:22:22;29.20;54.20
16287;DHT22;8251;53.568;10.018;2023-06-22T15:24:49;29.20;54.40
16287;DHT22;8251;53.568;10.018;2023-06-22T15:27:18;29.20;54.60
16287;DHT22;8251;53.568;10.018;2023-06-22T15:29:46;29.20;54.60
16287;DHT22;8251;53.568;10.018;2023-06-22T15:32:13;29.20;54.50
16287;DHT22;8251;53.568;10.018;2023-06-22T15:34:41;29.20;54.50
16287;DHT22;8251;53.568;10.018;2023-06-22T15:37:10;29.20;54.50
16287;DHT22;8251;53.568;10.018;2023-06-22T15:39:38;29.10;54.60
16287;DHT22;8251;53.568;10.018;2023-06-22T15:42:12;29.10;54.80
16287;DHT22;8251;53.568;10.018;2023-06-22T15:44:39;29.10;54.60
16287;DHT22;8251;53.568;10.018;2023-06-22T15:47:07;29.00;54.70